createdAt,value
2023-04-14T00:02:07.167Z,4.10
2023-04-14T00:04:34.443Z,4.38
2023-04-14T00:07:01.803Z,4.55
2023-04-14T00:09:29.943Z,5.13
2023-04-14T00:11:57.482Z,5.37
2023-04-14T00:14:24.634Z,4.55
2023-04-14T00:16:51.797Z,4.57
2023-04-14T00:19:18.938Z,4.87
2023-04-14T00:21:45.999Z,5.10
2023-04-14T00:24:13.043Z,4.70
2023-04-14T00:26:40.087Z,4.88
2023-04-14T00:29:07.121Z,4.07
2023-04-14T00:31:34.256Z,4.57
2023-04-14T00:34:01.418Z,3.60
2023-04-14T00:36:28.636Z,4.32
2023-04-14T00:38:55.693Z,4.05
2023-04-14T00:41:24.703Z,4.73
2023-04-14T00:43:55.486Z,4.65
2023-04-14T00:46:22.813Z,4.32
2023-04-14T00:48:49.929Z,4.40
2023-04-14T00:51:17.479Z,4.40
2023-04-14T00:53:44.545Z,4.28
2023-04-14T00:56:11.614Z,4.80
2023-04-14T00:58:38.673Z,4.13
2023-04-14T01:01:06.399Z,4.63
2023-04-14T01:03:33.647Z,5.27
2023-04-14T01:06:00.971Z,5.03
2023-04-14T01:08:28.045Z,4.33
2023-04-14T01:11:13.887Z,4.72
2023-04-14T01:13:59.786Z,4.25
2023-04-14T01:16:29.457Z,4.45
2023-04-14T01:19:02.470Z,4.32
2023-04-14T01:21:33.075Z,5.18
2023-04-14T01:24:23.773Z,4.90
2023-04-14T01:26:51.898Z,5.70
2023-04-14T01:29:34.805Z,4.70
2023-04-14T01:32:05.965Z,5.97
2023-04-14T01:34:47.280Z,5.60
2023-04-14T01:37:15.058Z,5.70
2023-04-14T01:39:42.621Z,5.18
2023-04-14T01:42:11.191Z,5.03
2023-04-14T01:44:38.252Z,5.22
2023-04-14T01:47:05.987Z,5.15
2023-04-14T01:49:34.017Z,5.10
2023-04-14T01:52:01.680Z,5.40
2023-04-14T01:54:28.759Z,5.87
2023-04-14T01:56:56.993Z,5.90
2023-04-14T01:59:24.076Z,4.65
2023-04-14T02:01:51.627Z,5.35
2023-04-14T02:04:19.795Z,5.05
2023-04-14T02:06:46.913Z,5.00
2023-04-14T02:09:14.354Z,5.32
2023-04-14T02:11:42.306Z,4.78
2023-04-14T02:14:09.404Z,5.35
2023-04-14T02:16:36.550Z,4.80
2023-04-14T02:19:04.035Z,5.32
2023-04-14T02:21:31.242Z,5.83
2023-04-14T02:23:58.315Z,5.35
2023-04-14T02:26:26.465Z,5.35
2023-04-14T02:28:58.071Z,5.07
2023-04-14T02:31:26.216Z,6.10
2023-04-14T02:33:54.779Z,5.93
2023-04-14T02:36:23.181Z,5.63
2023-04-14T02:38:54.252Z,5.77
2023-04-14T02:41:23.412Z,5.85
2023-04-14T02:43:51.906Z,5.53
2023-04-14T02:46:19.094Z,5.78
2023-04-14T02:48:46.715Z,6.95
2023-04-14T02:51:14.708Z,5.75
2023-04-14T02:53:41.758Z,6.63
2023-04-14T02:56:08.921Z,6.88
2023-04-14T02:58:36.033Z,7.45
2023-04-14T03:01:03.108Z,7.68
2023-04-14T03:03:30.267Z,7.87
2023-04-14T03:05:57.336Z,7.78
2023-04-14T03:08:24.585Z,7.07
2023-04-14T03:10:51.727Z,6.95
2023-04-14T03:13:18.905Z,7.20
2023-04-14T03:15:46.091Z,6.90
2023-04-14T03:18:13.208Z,7.57
2023-04-14T03:20:41.551Z,8.70
2023-04-14T03:23:09.096Z,8.35
2023-04-14T03:25:38.055Z,7.97
2023-04-14T03:28:05.709Z,8.45
2023-04-14T03:30:33.099Z,8.68
2023-04-14T03:33:01.121Z,8.68
2023-04-14T03:35:28.260Z,8.77
2023-04-14T03:37:59.614Z,7.70
2023-04-14T03:40:31.571Z,8.05
2023-04-14T03:42:58.642Z,8.37
2023-04-14T03:45:28.786Z,8.27
2023-04-14T03:47:58.837Z,7.88
2023-04-14T03:50:27.721Z,9.15
2023-04-14T03:52:55.164Z,9.23
2023-04-14T03:55:22.520Z,8.57
2023-04-14T03:57:49.563Z,8.50
2023-04-14T04:00:16.782Z,7.87
2023-04-14T04:02:43.964Z,7.37
2023-04-14T04:05:11.448Z,7.90
2023-04-14T04:07:38.640Z,8.98
2023-04-14T04:10:06.106Z,7.80
2023-04-14T04:12:33.165Z,8.27
2023-04-14T04:15:00.549Z,8.40
2023-04-14T04:17:27.667Z,9.43
2023-04-14T04:19:54.810Z,9.00
2023-04-14T04:22:21.991Z,10.50
2023-04-14T04:24:49.056Z,10.63
2023-04-14T04:27:26.543Z,9.90
2023-04-14T04:29:54.744Z,10.88
2023-04-14T04:32:22.212Z,10.50
2023-04-14T04:34:49.684Z,12.33
2023-04-14T04:37:16.820Z,11.43
2023-04-14T04:39:43.874Z,10.80
2023-04-14T04:42:11.014Z,11.48
2023-04-14T04:44:38.112Z,11.50
2023-04-14T04:47:05.368Z,11.00
2023-04-14T04:49:32.430Z,10.95
2023-04-14T04:51:59.786Z,11.70
2023-04-14T04:54:27.126Z,12.80
2023-04-14T04:56:54.250Z,12.60
2023-04-14T04:59:21.595Z,11.87
2023-04-14T05:01:48.779Z,12.50
2023-04-14T05:04:16.177Z,12.37
2023-04-14T05:06:43.302Z,13.23
2023-04-14T05:09:10.354Z,11.82
2023-04-14T05:11:37.454Z,11.15
2023-04-14T05:14:04.508Z,11.15
2023-04-14T05:16:32.029Z,11.55
2023-04-14T05:18:59.295Z,10.80
2023-04-14T05:21:27.026Z,10.70
2023-04-14T05:23:54.088Z,12.45
2023-04-14T05:26:44.718Z,11.63
2023-04-14T05:29:09.494Z,11.13
2023-04-14T05:31:36.926Z,11.27
2023-04-14T05:34:04.218Z,10.63
2023-04-14T05:36:31.704Z,11.00
2023-04-14T05:38:58.805Z,11.25
2023-04-14T05:41:26.616Z,10.05
2023-04-14T05:43:53.780Z,9.45
2023-04-14T05:46:21.048Z,9.30
2023-04-14T05:48:48.221Z,9.50
2023-04-14T05:51:16.440Z,9.13
2023-04-14T05:53:43.519Z,8.90
2023-04-14T05:56:11.600Z,9.27
2023-04-14T05:58:38.746Z,9.88
2023-04-14T06:01:06.312Z,9.67
2023-04-14T06:03:33.556Z,9.05
2023-04-14T06:06:00.812Z,9.32
2023-04-14T06:08:29.992Z,9.25
2023-04-14T06:10:57.470Z,8.33
2023-04-14T06:13:24.539Z,8.90
2023-04-14T06:15:51.649Z,8.25
2023-04-14T06:18:18.855Z,8.13
2023-04-14T06:20:46.160Z,7.53
2023-04-14T06:23:13.327Z,7.15
2023-04-14T06:25:40.591Z,7.95
2023-04-14T06:28:07.728Z,9.18
2023-04-14T06:30:34.855Z,8.33
2023-04-14T06:33:04.852Z,8.60
2023-04-14T06:35:33.806Z,8.43
2023-04-14T06:38:01.825Z,8.05
2023-04-14T06:40:29.000Z,9.73
2023-04-14T06:42:56.134Z,9.35
2023-04-14T06:45:23.199Z,8.88
2023-04-14T06:47:50.306Z,8.82
2023-04-14T06:50:17.385Z,7.73
2023-04-14T06:52:44.543Z,8.90
2023-04-14T06:55:11.605Z,8.00
2023-04-14T06:57:38.654Z,7.78
2023-04-14T07:00:06.963Z,9.13
2023-04-14T07:02:34.085Z,9.10
2023-04-14T07:05:01.342Z,8.85
2023-04-14T07:07:28.475Z,10.00
2023-04-14T07:09:55.667Z,9.07
2023-04-14T07:12:23.263Z,8.95
2023-04-14T07:14:53.302Z,9.32
2023-04-14T07:17:20.634Z,9.77
2023-04-14T07:19:47.703Z,9.60
2023-04-14T07:22:14.789Z,10.90
2023-04-14T07:24:41.852Z,10.15
2023-04-14T07:27:15.064Z,9.43
2023-04-14T07:29:42.554Z,9.32
2023-04-14T07:32:09.701Z,10.60
2023-04-14T07:34:37.053Z,9.45
2023-04-14T07:37:04.169Z,9.68
2023-04-14T07:39:31.304Z,10.45
2023-04-14T07:41:58.962Z,10.18
2023-04-14T07:44:26.348Z,9.93
2023-04-14T07:46:53.611Z,10.97
2023-04-14T07:49:20.689Z,10.77
2023-04-14T07:51:47.759Z,11.23
2023-04-14T07:54:15.938Z,10.52
2023-04-14T07:56:43.042Z,10.07
2023-04-14T07:59:10.287Z,11.05
2023-04-14T08:01:37.756Z,12.18
2023-04-14T08:04:05.010Z,10.70
2023-04-14T08:06:32.865Z,11.18
2023-04-14T08:09:00.281Z,10.35
2023-04-14T08:11:27.616Z,12.32
2023-04-14T08:13:54.686Z,11.85
2023-04-14T08:16:22.531Z,11.93
2023-04-14T08:18:49.893Z,11.65
2023-04-14T08:21:17.594Z,12.57
2023-04-14T08:23:44.653Z,11.77
2023-04-14T08:26:11.711Z,11.70
2023-04-14T08:28:38.770Z,10.95
2023-04-14T08:31:06.436Z,11.73
2023-04-14T08:33:33.860Z,12.55
2023-04-14T08:36:01.153Z,11.93
2023-04-14T08:38:29.247Z,12.73
2023-04-14T08:40:56.846Z,11.00
2023-04-14T08:43:24.005Z,11.38
2023-04-14T08:45:51.760Z,12.52
2023-04-14T08:48:20.419Z,12.05
2023-04-14T08:50:50.358Z,12.32
2023-04-14T08:53:17.413Z,13.07
2023-04-14T08:55:44.466Z,10.85
2023-04-14T08:58:11.622Z,12.18
2023-04-14T09:00:40.152Z,11.88
2023-04-14T09:03:08.960Z,11.63
2023-04-14T09:05:36.391Z,11.37
2023-04-14T09:08:03.712Z,12.52
2023-04-14T09:10:30.827Z,12.48
2023-04-14T09:12:57.960Z,12.07
2023-04-14T09:15:28.539Z,13.55
2023-04-14T09:17:57.789Z,12.98
2023-04-14T09:20:35.106Z,13.00
2023-04-14T09:23:06.268Z,13.25
2023-04-14T09:25:34.407Z,13.53
2023-04-14T09:28:01.539Z,14.85
2023-04-14T09:30:28.849Z,13.23
2023-04-14T09:32:56.526Z,12.15
2023-04-14T09:35:23.728Z,12.30
2023-04-14T09:37:50.939Z,13.32
2023-04-14T09:40:28.788Z,14.80
2023-04-14T09:42:56.799Z,15.73
2023-04-14T09:45:24.011Z,16.05
2023-04-14T09:47:57.553Z,16.73
2023-04-14T09:50:24.653Z,16.60
2023-04-14T09:52:52.370Z,16.83
2023-04-14T09:55:19.470Z,16.80
2023-04-14T09:57:51.734Z,15.95
2023-04-14T10:00:22.379Z,14.88
2023-04-14T10:02:50.216Z,14.43
2023-04-14T10:05:19.589Z,13.60
2023-04-14T10:07:47.112Z,14.50
2023-04-14T10:10:14.449Z,14.07
2023-04-14T10:12:44.541Z,13.13
2023-04-14T10:15:12.639Z,12.65
2023-04-14T10:17:39.965Z,11.63
2023-04-14T10:20:07.736Z,13.32
2023-04-14T10:22:34.874Z,13.75
2023-04-14T10:25:01.963Z,14.13
2023-04-14T10:27:30.258Z,13.10
2023-04-14T10:29:57.449Z,13.05
2023-04-14T10:32:24.853Z,12.48
2023-04-14T10:34:58.644Z,12.50
2023-04-14T10:37:25.733Z,12.48
2023-04-14T10:39:56.337Z,12.57
2023-04-14T10:42:24.142Z,12.48
2023-04-14T10:45:05.670Z,11.48
2023-04-14T10:47:32.840Z,13.02
2023-04-14T10:50:04.217Z,13.25
2023-04-14T10:52:31.994Z,12.88
2023-04-14T10:55:07.485Z,11.20
2023-04-14T10:57:38.810Z,13.10
2023-04-14T11:00:21.990Z,13.00
2023-04-14T11:02:59.316Z,13.20
2023-04-14T11:05:27.019Z,11.70
2023-04-14T11:07:56.008Z,15.25
2023-04-14T11:10:23.929Z,14.32
2023-04-14T11:12:57.528Z,12.88
2023-04-14T11:15:24.685Z,14.02
2023-04-14T11:17:52.112Z,14.73
2023-04-14T11:20:19.899Z,16.50
2023-04-14T11:22:47.608Z,15.57
2023-04-14T11:25:16.144Z,15.75
2023-04-14T11:27:43.522Z,14.95
2023-04-14T11:30:14.474Z,16.23
2023-04-14T11:32:51.980Z,16.05
2023-04-14T11:35:19.188Z,14.00
2023-04-14T11:37:46.381Z,11.30
2023-04-14T11:40:13.943Z,12.50
2023-04-14T11:42:44.833Z,15.25
2023-04-14T11:45:12.072Z,18.10
2023-04-14T11:47:39.163Z,13.85
2023-04-14T11:50:07.133Z,15.10
2023-04-14T11:52:34.678Z,15.60
2023-04-14T11:55:02.636Z,16.00
2023-04-14T11:57:29.728Z,15.27
2023-04-14T11:59:56.991Z,11.97
2023-04-14T12:02:24.240Z,10.55
2023-04-14T12:04:51.896Z,12.60
2023-04-14T12:07:20.980Z,10.57
2023-04-14T12:09:48.992Z,10.60
2023-04-14T12:12:17.225Z,11.93
2023-04-14T12:14:50.612Z,10.68
2023-04-14T12:17:18.718Z,13.30
2023-04-14T12:19:45.828Z,11.43
2023-04-14T12:22:13.119Z,18.47
2023-04-14T12:24:40.973Z,14.43
2023-04-14T12:27:09.735Z,12.13
2023-04-14T12:29:37.120Z,7.88
2023-04-14T12:32:10.631Z,7.05
2023-04-14T12:34:37.678Z,5.50
2023-04-14T12:37:07.324Z,3.65
2023-04-14T12:39:39.276Z,3.73
2023-04-14T12:42:07.386Z,3.38
2023-04-14T12:44:36.427Z,3.20
2023-04-14T12:47:03.571Z,2.78
2023-04-14T12:49:31.396Z,2.90
2023-04-14T12:51:58.463Z,3.45
2023-04-14T12:54:25.684Z,3.60
2023-04-14T12:56:53.452Z,3.60
2023-04-14T12:59:20.556Z,4.20
2023-04-14T13:01:47.892Z,4.43
2023-04-14T13:04:15.167Z,5.68
2023-04-14T13:06:42.368Z,4.93
2023-04-14T13:09:09.840Z,4.97
2023-04-14T13:11:36.914Z,5.97
2023-04-14T13:14:04.514Z,6.45
2023-04-14T13:16:31.640Z,6.77
2023-04-14T13:18:59.870Z,6.55
2023-04-14T13:21:27.202Z,6.53
2023-04-14T13:23:54.268Z,7.10
2023-04-14T13:26:21.374Z,6.47
2023-04-14T13:28:50.352Z,5.63
2023-04-14T13:31:18.157Z,5.95
2023-04-14T13:33:45.308Z,6.80
2023-04-14T13:36:12.467Z,5.87
2023-04-14T13:38:39.543Z,6.07
2023-04-14T13:41:07.076Z,6.10
2023-04-14T13:43:34.877Z,5.90
2023-04-14T13:46:02.070Z,6.00
2023-04-14T13:48:29.216Z,4.20
2023-04-14T13:50:56.352Z,4.85
2023-04-14T13:53:23.448Z,4.10
2023-04-14T13:55:50.896Z,3.95
2023-04-14T13:58:18.333Z,4.60
2023-04-14T14:00:45.402Z,4.55
2023-04-14T14:03:12.684Z,4.95
2023-04-14T14:05:40.087Z,6.22
2023-04-14T14:08:07.253Z,7.15
2023-04-14T14:10:34.389Z,6.90
2023-04-14T14:13:01.447Z,6.10
2023-04-14T14:15:28.925Z,8.10
2023-04-14T14:17:56.085Z,6.35
2023-04-14T14:20:23.175Z,6.53
2023-04-14T14:22:50.848Z,6.72
2023-04-14T14:25:20.885Z,7.90
2023-04-14T14:27:48.512Z,7.15
2023-04-14T14:30:15.768Z,6.90
2023-04-14T14:32:43.035Z,5.32
2023-04-14T14:35:10.476Z,3.72
2023-04-14T14:37:37.661Z,3.60
2023-04-14T14:40:05.019Z,4.03
2023-04-14T14:42:32.118Z,4.75
2023-04-14T14:45:01.146Z,5.00
2023-04-14T14:47:28.461Z,4.05
2023-04-14T14:50:01.708Z,4.10
2023-04-14T14:52:33.524Z,3.92
2023-04-14T14:55:00.696Z,4.05
2023-04-14T14:57:27.871Z,4.63
2023-04-14T14:59:55.194Z,4.07
2023-04-14T15:02:22.549Z,4.25
2023-04-14T15:04:50.066Z,5.22
2023-04-14T15:07:17.349Z,4.88
2023-04-14T15:09:47.086Z,4.28
2023-04-14T15:12:14.212Z,6.07
2023-04-14T15:14:41.266Z,5.30
2023-04-14T15:17:08.358Z,5.57
2023-04-14T15:19:35.436Z,4.88
2023-04-14T15:22:02.503Z,5.50
2023-04-14T15:24:29.652Z,7.05
2023-04-14T15:26:57.519Z,6.35
2023-04-14T15:29:25.788Z,5.97
2023-04-14T15:31:52.945Z,6.17
2023-04-14T15:34:21.211Z,6.38
2023-04-14T15:36:48.337Z,8.02
2023-04-14T15:39:15.681Z,6.00
2023-04-14T15:41:46.949Z,6.57
2023-04-14T15:44:14.141Z,6.15
2023-04-14T15:46:44.121Z,8.05
2023-04-14T15:49:11.179Z,8.32
2023-04-14T15:51:38.247Z,8.40
2023-04-14T15:54:05.999Z,10.00
2023-04-14T15:56:33.190Z,10.07
2023-04-14T15:59:00.554Z,13.00
2023-04-14T16:01:27.619Z,12.83
2023-04-14T16:03:54.762Z,10.32
2023-04-14T16:06:21.835Z,10.00
2023-04-14T16:08:48.929Z,9.82
2023-04-14T16:11:16.224Z,10.20
2023-04-14T16:13:46.577Z,12.60
2023-04-14T16:16:14.315Z,11.82
2023-04-14T16:18:42.287Z,11.65
2023-04-14T16:21:09.360Z,11.32
2023-04-14T16:23:36.469Z,13.93
2023-04-14T16:26:03.560Z,15.85
2023-04-14T16:28:30.630Z,14.32
2023-04-14T16:31:01.307Z,14.93
2023-04-14T16:33:28.605Z,13.25
2023-04-14T16:35:56.974Z,15.63
2023-04-14T16:38:24.210Z,14.98
2023-04-14T16:40:56.300Z,14.07
2023-04-14T16:43:23.701Z,13.45
2023-04-14T16:45:51.708Z,13.30
2023-04-14T16:48:19.106Z,14.88
2023-04-14T16:50:47.300Z,14.82
2023-04-14T16:53:14.446Z,14.77
2023-04-14T16:55:41.547Z,13.88
2023-04-14T16:58:09.666Z,12.18
2023-04-14T17:00:37.269Z,12.68
2023-04-14T17:03:04.642Z,12.90
2023-04-14T17:05:31.965Z,12.77
2023-04-14T17:07:59.216Z,12.00
2023-04-14T17:10:28.811Z,12.83
2023-04-14T17:12:55.895Z,11.60
2023-04-14T17:15:23.541Z,14.38
2023-04-14T17:17:50.924Z,12.43
2023-04-14T17:20:18.080Z,15.35
2023-04-14T17:22:45.255Z,20.35
2023-04-14T17:25:12.342Z,22.95
2023-04-14T17:27:40.122Z,18.03
2023-04-14T17:30:10.026Z,18.23
2023-04-14T17:32:37.918Z,20.38
2023-04-14T17:35:06.569Z,21.42
2023-04-14T17:37:33.814Z,19.53
2023-04-14T17:40:03.244Z,24.95
2023-04-14T17:42:31.093Z,19.73
2023-04-14T17:44:58.262Z,20.45
2023-04-14T17:47:25.373Z,18.60
2023-04-14T17:49:54.177Z,20.42
2023-04-14T17:52:21.502Z,17.17
2023-04-14T17:54:49.837Z,29.52
2023-04-14T17:57:17.139Z,22.33
2023-04-14T17:59:44.871Z,18.48
2023-04-14T18:02:15.636Z,19.10
2023-04-14T18:04:43.523Z,17.83
2023-04-14T18:07:10.963Z,19.05
2023-04-14T18:09:38.030Z,19.00
2023-04-14T18:12:05.157Z,19.37
2023-04-14T18:14:33.154Z,18.95
2023-04-14T18:17:00.303Z,17.45
2023-04-14T18:19:27.899Z,23.30
2023-04-14T18:21:56.144Z,47.85
2023-04-14T18:26:54.579Z,25.08
2023-04-14T18:29:21.666Z,24.58
2023-04-14T18:31:48.725Z,19.97
2023-04-14T18:34:16.719Z,26.17
2023-04-14T18:36:44.063Z,22.05
2023-04-14T18:39:11.137Z,23.08
2023-04-14T18:41:38.404Z,24.65
2023-04-14T18:44:05.526Z,34.55
2023-04-14T18:46:32.651Z,28.53
2023-04-14T18:49:00.086Z,25.98
2023-04-14T18:51:27.462Z,26.40
2023-04-14T18:53:54.792Z,25.67
2023-04-14T18:56:21.882Z,23.50
2023-04-14T18:58:49.209Z,21.15
2023-04-14T19:01:17.447Z,24.73
2023-04-14T19:03:44.839Z,23.05
2023-04-14T19:06:12.773Z,21.60
2023-04-14T19:08:39.868Z,21.35
2023-04-14T19:11:07.570Z,22.88
2023-04-14T19:13:34.970Z,24.52
2023-04-14T19:16:08.817Z,27.75
2023-04-14T19:18:36.004Z,25.15
2023-04-14T19:21:03.332Z,26.10
2023-04-14T19:23:30.394Z,25.87
2023-04-14T19:25:57.866Z,26.70
2023-04-14T19:28:25.914Z,24.75
2023-04-14T19:30:53.104Z,25.70
2023-04-14T19:33:20.176Z,22.65
2023-04-14T19:35:48.583Z,21.83
2023-04-14T19:38:15.970Z,20.60
2023-04-14T19:40:49.514Z,18.55
2023-04-14T19:43:17.074Z,17.73
2023-04-14T19:45:51.455Z,17.80
2023-04-14T19:48:23.505Z,17.70
2023-04-14T19:50:51.732Z,21.95
2023-04-14T19:53:19.984Z,18.85
2023-04-14T19:55:51.045Z,18.48
2023-04-14T19:58:21.855Z,19.65
2023-04-14T20:00:50.921Z,21.27
2023-04-14T20:03:18.414Z,18.90
2023-04-14T20:05:45.684Z,20.55
2023-04-14T20:08:12.735Z,21.95
2023-04-14T20:10:40.550Z,20.17
2023-04-14T20:13:07.953Z,19.35
2023-04-14T20:15:35.052Z,18.70
2023-04-14T20:18:02.938Z,21.55
2023-04-14T20:20:30.051Z,19.15
2023-04-14T20:22:58.644Z,20.55
2023-04-14T20:25:25.732Z,20.60
2023-04-14T20:27:52.955Z,22.15
2023-04-14T20:30:20.039Z,22.13
2023-04-14T20:32:47.213Z,24.30
2023-04-14T20:35:14.491Z,23.67
2023-04-14T20:37:41.700Z,22.63
2023-04-14T20:40:08.822Z,22.10
2023-04-14T20:42:35.870Z,26.00
2023-04-14T20:45:03.211Z,25.87
2023-04-14T20:47:30.409Z,26.98
2023-04-14T20:49:57.497Z,23.13
2023-04-14T20:52:25.327Z,25.85
2023-04-14T20:54:52.371Z,25.83
2023-04-14T20:57:20.050Z,23.70
2023-04-14T20:59:47.127Z,25.27
2023-04-14T21:02:14.355Z,23.17
2023-04-14T21:04:41.429Z,24.77
2023-04-14T21:07:08.515Z,27.05
2023-04-14T21:09:35.572Z,27.30
2023-04-14T21:12:16.025Z,26.52
2023-04-14T21:15:28.177Z,26.70
2023-04-14T21:17:31.018Z,27.08
2023-04-14T21:19:58.089Z,25.67
2023-04-14T21:22:25.154Z,27.25
2023-04-14T21:24:52.200Z,26.33
2023-04-14T21:27:19.279Z,29.27
2023-04-14T21:29:46.368Z,26.07
2023-04-14T21:32:14.085Z,25.25
2023-04-14T21:34:41.495Z,29.08
2023-04-14T21:37:08.629Z,29.02
2023-04-14T21:39:36.174Z,29.58
2023-04-14T21:42:03.788Z,26.25
2023-04-14T21:44:31.252Z,29.60
2023-04-14T21:46:58.326Z,27.17
2023-04-14T21:49:25.608Z,26.73
2023-04-14T21:51:52.684Z,31.42
2023-04-14T21:54:19.793Z,30.35
2023-04-14T21:56:46.985Z,30.33
2023-04-14T21:59:14.034Z,34.92
2023-04-14T22:01:42.612Z,34.90
2023-04-14T22:04:11.392Z,33.88
2023-04-14T22:06:41.718Z,32.53
2023-04-14T22:09:08.788Z,36.13
2023-04-14T22:11:35.902Z,35.80
2023-04-14T22:14:03.145Z,35.03
2023-04-14T22:16:30.375Z,33.80
2023-04-14T22:18:57.501Z,33.13
2023-04-14T22:21:24.761Z,35.08
2023-04-14T22:23:51.849Z,33.25
2023-04-14T22:26:19.528Z,35.25
2023-04-14T22:28:46.586Z,34.55
2023-04-14T22:31:13.722Z,30.00
2023-04-14T22:33:40.947Z,25.23
2023-04-14T22:36:09.578Z,23.80
2023-04-14T22:38:36.660Z,34.45
2023-04-14T22:41:03.749Z,28.00
2023-04-14T22:43:30.944Z,26.73
2023-04-14T22:45:58.291Z,24.13
2023-04-14T22:48:25.509Z,23.98
2023-04-14T22:50:52.552Z,25.95
2023-04-14T22:53:19.620Z,27.27
2023-04-14T22:55:46.675Z,27.17
2023-04-14T22:58:17.522Z,24.35
2023-04-14T23:00:45.304Z,24.80
2023-04-14T23:03:12.784Z,25.73
2023-04-14T23:05:40.004Z,23.53
2023-04-14T23:08:07.139Z,27.13
2023-04-14T23:10:34.222Z,26.40
2023-04-14T23:13:01.501Z,24.33
2023-04-14T23:15:28.630Z,29.60
2023-04-14T23:17:56.273Z,28.87
2023-04-14T23:20:23.395Z,27.40
2023-04-14T23:22:50.592Z,27.88
2023-04-14T23:25:18.228Z,28.00
2023-04-14T23:27:45.333Z,31.70
2023-04-14T23:30:12.830Z,36.40
2023-04-14T23:32:40.009Z,36.63
2023-04-14T23:35:07.406Z,35.27
2023-04-14T23:37:34.458Z,32.17
2023-04-14T23:40:01.539Z,32.25
2023-04-14T23:42:28.783Z,36.70
2023-04-14T23:44:55.838Z,36.97
2023-04-14T23:47:22.949Z,32.60
2023-04-14T23:49:50.050Z,38.70
2023-04-14T23:52:17.752Z,34.70
2023-04-14T23:54:44.826Z,34.67
2023-04-14T23:57:11.886Z,43.38
2023-04-14T23:59:38.923Z,39.03
